createdAt,value
2018-06-05T00:02:25.499Z,99038.27
2018-06-05T00:04:55.303Z,99035.28
2018-06-05T00:07:25.127Z,99039.64
2018-06-05T00:09:54.960Z,99032.43
2018-06-05T00:12:24.832Z,99023.67
2018-06-05T00:14:54.640Z,99035.31
2018-06-05T00:17:24.473Z,99021.93
2018-06-05T00:19:54.299Z,99031.10
2018-06-05T00:22:24.084Z,99028.66
2018-06-05T00:24:53.945Z,99022.50
2018-06-05T00:27:23.815Z,99027.05
2018-06-05T00:29:53.597Z,99020.73
2018-06-05T00:32:23.447Z,99021.84
2018-06-05T00:34:53.248Z,99022.19
2018-06-05T00:37:23.079Z,99024.13
2018-06-05T00:39:52.889Z,99019.59
2018-06-05T00:42:22.709Z,99020.50
2018-06-05T00:44:52.599Z,99016.94
2018-06-05T00:47:22.477Z,99012.48
2018-06-05T00:49:52.433Z,99008.44
2018-06-05T00:52:22.280Z,99008.52
2018-06-05T00:54:52.131Z,99003.09
2018-06-05T00:57:21.982Z,99001.45
2018-06-05T00:59:51.840Z,99005.36
2018-06-05T01:02:21.703Z,99010.20
2018-06-05T01:04:51.520Z,99007.45
2018-06-05T01:07:21.328Z,99017.58
2018-06-05T01:09:51.101Z,99003.26
2018-06-05T01:12:20.951Z,99009.09
2018-06-05T01:14:50.736Z,99014.43
2018-06-05T01:17:20.596Z,99012.72
2018-06-05T01:19:50.411Z,99014.54
2018-06-05T01:22:20.234Z,99017.73
2018-06-05T01:24:50.048Z,99019.25
2018-06-05T01:27:19.880Z,99017.81
2018-06-05T01:29:49.679Z,99023.02
2018-06-05T01:32:19.515Z,99013.38
2018-06-05T01:34:49.356Z,99006.80
2018-06-05T01:37:19.173Z,99010.72
2018-06-05T01:39:48.997Z,99009.84
2018-06-05T01:42:18.844Z,99009.91
2018-06-05T01:44:48.643Z,98998.31
2018-06-05T01:47:18.492Z,98995.95
2018-06-05T01:49:48.310Z,98935.58
2018-06-05T01:52:18.136Z,98999.45
2018-06-05T01:54:47.904Z,98993.37
2018-06-05T01:57:17.753Z,99003.51
2018-06-05T01:59:47.616Z,99003.50
2018-06-05T02:02:17.455Z,99007.27
2018-06-05T02:04:47.273Z,99010.37
2018-06-05T02:07:17.065Z,99010.67
2018-06-05T02:09:46.898Z,99014.16
2018-06-05T02:12:16.727Z,99017.81
2018-06-05T02:14:46.549Z,99018.14
2018-06-05T02:17:16.444Z,99022.11
2018-06-05T02:19:46.340Z,99022.38
2018-06-05T02:22:16.124Z,99027.61
2018-06-05T02:24:45.979Z,99035.09
2018-06-05T02:27:15.808Z,99030.70
2018-06-05T02:29:45.652Z,99026.12
2018-06-05T02:32:15.433Z,99031.05
2018-06-05T02:34:45.304Z,99031.84
2018-06-05T02:37:15.268Z,99030.47
2018-06-05T02:39:45.044Z,99036.55
2018-06-05T02:42:14.918Z,99043.03
2018-06-05T02:44:44.807Z,99040.59
2018-06-05T02:47:14.632Z,99048.84
2018-06-05T02:49:44.527Z,99041.05
2018-06-05T02:52:14.340Z,99038.41
2018-06-05T02:54:44.196Z,99031.11
2018-06-05T02:57:13.996Z,99035.90
2018-06-05T02:59:43.844Z,99037.92
2018-06-05T03:02:13.687Z,99043.02
2018-06-05T03:04:43.505Z,99044.73
2018-06-05T03:07:13.367Z,99035.38
2018-06-05T03:09:43.156Z,99038.17
2018-06-05T03:12:13.041Z,99032.86
2018-06-05T03:14:42.836Z,99037.44
2018-06-05T03:17:12.676Z,99039.46
2018-06-05T03:19:42.517Z,99041.91
2018-06-05T03:22:12.320Z,99041.83
2018-06-05T03:24:42.192Z,99038.69
2018-06-05T03:27:12.064Z,99047.97
2018-06-05T03:29:41.843Z,99038.95
2018-06-05T03:32:11.668Z,99037.08
2018-06-05T03:34:41.470Z,99042.50
2018-06-05T03:37:11.309Z,99046.73
2018-06-05T03:39:41.100Z,99057.59
2018-06-05T03:42:10.917Z,99049.44
2018-06-05T03:44:40.717Z,99049.93
2018-06-05T03:47:10.545Z,99052.66
2018-06-05T03:49:41.280Z,99053.56
2018-06-05T03:52:11.650Z,99057.34
2018-06-05T03:54:41.535Z,99063.04
2018-06-05T03:57:11.340Z,99064.34
2018-06-05T03:59:41.180Z,99065.72
2018-06-05T04:02:11.035Z,99056.08
2018-06-05T04:04:40.919Z,99059.66
2018-06-05T04:07:10.764Z,99065.66
2018-06-05T04:09:40.603Z,99066.62
2018-06-05T04:12:10.459Z,99066.50
2018-06-05T04:14:40.276Z,99059.89
2018-06-05T04:17:10.158Z,99056.36
2018-06-05T04:19:40.010Z,99057.00
2018-06-05T04:22:09.820Z,99056.23
2018-06-05T04:24:39.700Z,99050.58
2018-06-05T04:27:09.634Z,99048.80
2018-06-05T04:29:39.472Z,99050.47
2018-06-05T04:32:09.455Z,99057.91
2018-06-05T04:34:39.307Z,99055.80
2018-06-05T04:37:09.215Z,99052.29
2018-06-05T04:39:39.095Z,99048.05
2018-06-05T04:42:08.894Z,99054.06
2018-06-05T04:44:38.909Z,99057.55
2018-06-05T04:47:08.731Z,99060.11
2018-06-05T04:49:38.592Z,99057.47
2018-06-05T04:52:08.476Z,99065.44
2018-06-05T04:54:38.321Z,99068.65
2018-06-05T04:57:08.147Z,99065.17
2018-06-05T04:59:38.000Z,99076.67
2018-06-05T05:02:07.820Z,99070.91
2018-06-05T05:04:37.700Z,99068.17
2018-06-05T05:07:07.508Z,99065.46
2018-06-05T05:09:37.473Z,99073.70
2018-06-05T05:12:07.267Z,99065.01
2018-06-05T05:14:37.164Z,99069.75
2018-06-05T05:17:07.060Z,99069.53
2018-06-05T05:19:37.011Z,99064.77
2018-06-05T05:22:06.974Z,99071.55
2018-06-05T05:24:36.932Z,99075.03
2018-06-05T05:27:06.949Z,99071.80
2018-06-05T05:29:36.875Z,99070.00
2018-06-05T05:34:39.498Z,99079.67
2018-06-05T05:37:09.456Z,99082.80
2018-06-05T05:39:39.417Z,99084.98
2018-06-05T05:42:09.336Z,99086.94
2018-06-05T05:44:39.281Z,99089.85
2018-06-05T05:47:09.292Z,99086.56
2018-06-05T05:49:39.242Z,99092.11
2018-06-05T05:52:10.083Z,99093.05
2018-06-05T05:54:40.036Z,99090.35
2018-06-05T05:57:09.901Z,99090.44
2018-06-05T05:59:39.873Z,99091.54
2018-06-05T06:02:09.779Z,99088.59
2018-06-05T06:04:39.827Z,99094.17
2018-06-05T06:07:09.863Z,99084.77
2018-06-05T06:09:40.244Z,99000.81
2018-06-05T06:12:10.297Z,99095.56
2018-06-05T06:14:40.347Z,99090.19
2018-06-05T06:17:10.268Z,99094.27
2018-06-05T06:19:40.201Z,99096.74
2018-06-05T06:22:10.189Z,99092.70
2018-06-05T06:24:40.137Z,99098.97
2018-06-05T06:27:10.278Z,99084.91
2018-06-05T06:29:40.207Z,99089.91
2018-06-05T06:32:10.088Z,99084.91
2018-06-05T06:34:39.936Z,99084.13
2018-06-05T06:37:09.963Z,99080.38
2018-06-05T06:39:39.891Z,99082.77
2018-06-05T06:42:09.756Z,99087.05
2018-06-05T06:44:39.608Z,99074.23
2018-06-05T06:47:09.579Z,99081.08
2018-06-05T06:49:39.564Z,99078.59
2018-06-05T06:52:09.507Z,99073.33
2018-06-05T06:54:39.426Z,99069.14
2018-06-05T06:57:09.292Z,99068.66
2018-06-05T06:59:39.255Z,99065.39
2018-06-05T07:02:09.148Z,99062.96
2018-06-05T07:04:38.981Z,99063.20
2018-06-05T07:07:08.899Z,99067.29
2018-06-05T07:09:38.845Z,99067.59
2018-06-05T07:12:08.756Z,99060.86
2018-06-05T07:14:38.609Z,99062.63
2018-06-05T07:17:08.554Z,99056.44
2018-06-05T07:19:38.491Z,99059.34
2018-06-05T07:22:08.386Z,99061.45
2018-06-05T07:24:38.276Z,99063.40
2018-06-05T07:27:08.215Z,99058.67
2018-06-05T07:29:38.299Z,99052.48
2018-06-05T07:32:08.214Z,99050.45
2018-06-05T07:34:38.122Z,99050.13
2018-06-05T07:37:07.988Z,99037.22
2018-06-05T07:39:37.847Z,99047.39
2018-06-05T07:42:07.808Z,99050.61
2018-06-05T07:44:37.619Z,99047.02
2018-06-05T07:47:07.529Z,99049.56
2018-06-05T07:49:37.528Z,99042.16
2018-06-05T07:52:07.489Z,99051.56
2018-06-05T07:54:37.511Z,99040.52
2018-06-05T07:57:07.404Z,99042.25
2018-06-05T07:59:37.372Z,99047.28
2018-06-05T08:02:07.281Z,99046.49
2018-06-05T08:04:37.213Z,99046.44
2018-06-05T08:07:07.093Z,99042.30
2018-06-05T08:09:36.961Z,99032.59
2018-06-05T08:12:06.834Z,99039.83
2018-06-05T08:14:36.679Z,99038.52
2018-06-05T08:17:06.701Z,99037.20
2018-06-05T08:19:36.540Z,99034.52
2018-06-05T08:22:06.518Z,99036.34
2018-06-05T08:24:36.428Z,99036.34
2018-06-05T08:27:06.307Z,99033.39
2018-06-05T08:29:36.189Z,99026.89
2018-06-05T08:32:10.425Z,99037.98
2018-06-05T08:34:40.410Z,99020.36
2018-06-05T08:37:10.277Z,99032.55
2018-06-05T08:39:40.244Z,99030.44
2018-06-05T08:42:10.040Z,99024.08
2018-06-05T08:44:39.911Z,99025.01
2018-06-05T08:47:09.809Z,99022.84
2018-06-05T08:49:39.714Z,99025.97
2018-06-05T08:52:09.636Z,99020.00
2018-06-05T08:54:39.438Z,98950.56
2018-06-05T08:57:09.431Z,99016.05
2018-06-05T08:59:40.342Z,99024.59
2018-06-05T09:02:11.472Z,99028.94
2018-06-05T09:04:41.705Z,99017.47
2018-06-05T09:07:11.667Z,99015.98
2018-06-05T09:09:41.538Z,99014.98
2018-06-05T09:12:11.468Z,99024.73
2018-06-05T09:14:41.286Z,99016.04
2018-06-05T09:17:11.492Z,99011.90
2018-06-05T09:19:41.349Z,99014.33
2018-06-05T09:22:11.874Z,99001.36
2018-06-05T09:24:41.927Z,98995.77
2018-06-05T09:27:13.745Z,98992.97
2018-06-05T09:29:43.624Z,98997.28
2018-06-05T09:32:13.492Z,99002.05
2018-06-05T09:34:43.431Z,99001.89
2018-06-05T09:37:20.069Z,98990.59
2018-06-05T09:39:54.201Z,98996.02
2018-06-05T09:42:25.095Z,98988.72
2018-06-05T09:44:55.565Z,98988.47
2018-06-05T09:47:29.056Z,98990.48
2018-06-05T09:50:03.342Z,98986.14
2018-06-05T09:52:36.200Z,98989.17
2018-06-05T09:55:10.758Z,98975.16
2018-06-05T09:57:44.793Z,98973.77
2018-06-05T10:00:16.780Z,98973.86
2018-06-05T10:02:47.240Z,98977.73
2018-06-05T10:05:17.729Z,98972.75
2018-06-05T10:07:48.130Z,98966.00
2018-06-05T10:10:17.975Z,98968.39
2018-06-05T10:12:47.805Z,98954.95
2018-06-05T10:15:17.632Z,98955.97
2018-06-05T10:17:47.563Z,98869.44
2018-06-05T10:20:17.462Z,98945.39
2018-06-05T10:22:47.272Z,98941.16
2018-06-05T10:25:17.104Z,98946.16
2018-06-05T10:27:46.910Z,98933.75
2018-06-05T10:30:16.821Z,98933.34
2018-06-05T10:32:46.767Z,98927.55
2018-06-05T10:35:16.641Z,98926.74
2018-06-05T10:37:46.472Z,98924.17
2018-06-05T10:40:16.558Z,98926.17
2018-06-05T10:42:46.456Z,98925.18
2018-06-05T10:45:16.286Z,98844.88
2018-06-05T10:47:46.164Z,98917.38
2018-06-05T10:50:16.120Z,98916.17
2018-06-05T10:52:46.072Z,98911.59
2018-06-05T10:55:15.985Z,98908.80
2018-06-05T10:57:45.828Z,98912.78
2018-06-05T11:00:15.902Z,98899.20
2018-06-05T11:02:45.842Z,98898.59
2018-06-05T11:05:15.669Z,98914.77
2018-06-05T11:07:45.488Z,98899.76
2018-06-05T11:10:15.428Z,98893.38
2018-06-05T11:12:45.347Z,98877.55
2018-06-05T11:15:17.026Z,98880.77
2018-06-05T11:17:46.917Z,98871.11
2018-06-05T11:20:16.913Z,98872.30
2018-06-05T11:22:46.854Z,98877.55
2018-06-05T11:25:16.788Z,98867.96
2018-06-05T11:27:46.677Z,98871.16
2018-06-05T11:30:16.601Z,98866.35
2018-06-05T11:32:46.567Z,98862.73
2018-06-05T11:35:16.465Z,98857.33
2018-06-05T11:37:46.512Z,98858.13
2018-06-05T11:40:16.318Z,98855.47
2018-06-05T11:42:46.187Z,98852.24
2018-06-05T11:45:16.148Z,98845.78
2018-06-05T11:47:46.004Z,98839.50
2018-06-05T11:50:15.944Z,98832.26
2018-06-05T11:52:45.881Z,98833.20
2018-06-05T11:55:15.802Z,98833.81
2018-06-05T11:57:45.726Z,98819.12
2018-06-05T12:00:15.884Z,98821.77
2018-06-05T12:02:45.825Z,98818.95
2018-06-05T12:05:15.738Z,98822.77
2018-06-05T12:07:45.689Z,98817.45
2018-06-05T12:10:15.607Z,98821.47
2018-06-05T12:12:45.525Z,98821.70
2018-06-05T12:15:15.353Z,98815.59
2018-06-05T12:17:45.239Z,98832.09
2018-06-05T12:20:15.068Z,98827.47
2018-06-05T12:22:44.924Z,98816.41
2018-06-05T12:25:14.741Z,98826.79
2018-06-05T12:27:44.625Z,98821.79
2018-06-05T12:30:14.452Z,98822.32
2018-06-05T12:32:44.348Z,98828.19
2018-06-05T12:35:14.157Z,98833.83
2018-06-05T12:37:44.040Z,98835.58
2018-06-05T12:40:13.925Z,98824.89
2018-06-05T12:42:43.955Z,98684.13
2018-06-05T12:45:13.792Z,98822.18
2018-06-05T12:47:43.740Z,98810.45
2018-06-05T12:50:13.590Z,98817.70
2018-06-05T12:52:43.392Z,98812.75
2018-06-05T12:55:13.343Z,98808.55
2018-06-05T12:57:43.317Z,98807.33
2018-06-05T13:00:13.144Z,98800.70
2018-06-05T13:02:43.005Z,98803.10
2018-06-05T13:05:12.860Z,98796.95
2018-06-05T13:07:42.713Z,98784.30
2018-06-05T13:10:12.596Z,98791.16
2018-06-05T13:12:42.532Z,98789.70
2018-06-05T13:15:12.520Z,98788.68
2018-06-05T13:17:42.496Z,98772.18
2018-06-05T13:20:12.359Z,98763.42
2018-06-05T13:22:42.242Z,98781.44
2018-06-05T13:25:12.142Z,98778.63
2018-06-05T13:27:42.000Z,98772.86
2018-06-05T13:30:11.880Z,98781.50
2018-06-05T13:32:44.085Z,98791.34
2018-06-05T13:35:14.237Z,98798.19
2018-06-05T13:37:44.181Z,98789.78
2018-06-05T13:40:14.133Z,98806.63
2018-06-05T13:42:43.966Z,98817.14
2018-06-05T13:45:13.860Z,98809.41
2018-06-05T13:47:43.806Z,98822.00
2018-06-05T13:50:14.987Z,98825.81
2018-06-05T13:52:44.979Z,98833.59
2018-06-05T13:55:14.884Z,98837.58
2018-06-05T13:57:44.755Z,98836.39
2018-06-05T14:00:15.041Z,98836.84
2018-06-05T14:02:45.764Z,98841.56
2018-06-05T14:05:15.685Z,98837.98
2018-06-05T14:07:45.616Z,98838.61
2018-06-05T14:10:15.572Z,98837.86
2018-06-05T14:12:45.377Z,98849.50
2018-06-05T14:15:15.342Z,98859.95
2018-06-05T14:17:45.305Z,98861.94
2018-06-05T14:20:15.205Z,98867.73
2018-06-05T14:22:45.078Z,98865.73
2018-06-05T14:25:15.020Z,98877.92
2018-06-05T14:27:45.029Z,98878.55
2018-06-05T14:30:14.991Z,98894.67
2018-06-05T14:32:44.884Z,98898.27
2018-06-05T14:35:14.701Z,98913.29
2018-06-05T14:37:44.536Z,98918.34
2018-06-05T14:40:14.428Z,98925.39
2018-06-05T14:42:44.340Z,98936.47
2018-06-05T14:45:14.298Z,98930.95
2018-06-05T14:47:44.024Z,98937.96
2018-06-05T14:50:13.876Z,98936.56
2018-06-05T14:52:43.692Z,98934.09
2018-06-05T14:55:13.536Z,98947.63
2018-06-05T14:57:43.385Z,98942.84
2018-06-05T15:00:13.172Z,98957.73
2018-06-05T15:02:43.013Z,98951.64
2018-06-05T15:05:12.795Z,98952.23
2018-06-05T15:07:42.676Z,98944.70
2018-06-05T15:10:12.476Z,98948.77
2018-06-05T15:12:42.254Z,98936.45
2018-06-05T15:15:12.100Z,98939.91
2018-06-05T15:17:41.889Z,98936.08
2018-06-05T15:20:11.780Z,98934.89
2018-06-05T15:22:41.576Z,98938.28
2018-06-05T15:25:11.428Z,98939.49
2018-06-05T15:27:41.266Z,98940.53
2018-06-05T15:30:11.205Z,98944.58
2018-06-05T15:32:41.034Z,98945.42
2018-06-05T15:35:10.867Z,98943.66
2018-06-05T15:37:40.728Z,98945.16
2018-06-05T15:40:11.305Z,98943.34
2018-06-05T15:42:42.289Z,98946.50
2018-06-05T15:45:12.268Z,98947.09
2018-06-05T15:47:42.806Z,98950.03
2018-06-05T15:50:13.488Z,98953.55
2018-06-05T15:52:43.356Z,98956.55
2018-06-05T15:55:13.784Z,98965.59
2018-06-05T15:57:43.632Z,98965.09
2018-06-05T16:00:13.489Z,98972.87
2018-06-05T16:02:43.280Z,98978.32
2018-06-05T16:05:13.113Z,98982.17
2018-06-05T16:07:42.973Z,98987.93
2018-06-05T16:10:12.772Z,98987.02
2018-06-05T16:12:42.609Z,98992.97
2018-06-05T16:15:12.385Z,98990.33
2018-06-05T16:17:42.197Z,98990.09
2018-06-05T16:20:12.015Z,98983.95
2018-06-05T16:22:41.933Z,98987.48
2018-06-05T16:25:11.764Z,98986.94
2018-06-05T16:27:41.592Z,99004.11
2018-06-05T16:30:11.428Z,99003.44
2018-06-05T16:32:41.231Z,99006.33
2018-06-05T16:35:11.082Z,99003.34
2018-06-05T16:37:40.875Z,98901.32
2018-06-05T16:40:10.707Z,99004.44
2018-06-05T16:42:40.626Z,99002.78
2018-06-05T16:45:10.456Z,99007.48
2018-06-05T16:47:40.350Z,99011.07
2018-06-05T16:50:10.208Z,99020.08
2018-06-05T16:52:40.032Z,99020.59
2018-06-05T16:55:09.868Z,99021.42
2018-06-05T16:57:39.800Z,99022.38
2018-06-05T17:00:09.668Z,99021.12
2018-06-05T17:02:39.548Z,99019.52
2018-06-05T17:05:09.356Z,99030.09
2018-06-05T17:07:39.225Z,99025.09
2018-06-05T17:10:09.024Z,99031.38
2018-06-05T17:12:38.868Z,99034.73
2018-06-05T17:15:08.717Z,99040.09
2018-06-05T17:17:38.517Z,99043.52
2018-06-05T17:20:08.356Z,99040.80
2018-06-05T17:22:38.147Z,99035.48
2018-06-05T17:25:07.996Z,99033.77
2018-06-05T17:27:37.840Z,99030.48
2018-06-05T17:30:07.647Z,99028.66
2018-06-05T17:32:37.488Z,99026.97
2018-06-05T17:35:07.312Z,99025.50
2018-06-05T17:37:37.176Z,99021.03
2018-06-05T17:40:07.043Z,99024.87
2018-06-05T17:42:36.830Z,99026.11
2018-06-05T17:45:06.669Z,99019.95
2018-06-05T17:47:36.551Z,99027.78
2018-06-05T17:50:06.377Z,99034.43
2018-06-05T17:52:36.236Z,99035.27
2018-06-05T17:55:06.415Z,99034.52
2018-06-05T17:57:36.388Z,99038.78
2018-06-05T18:00:06.248Z,99043.03
2018-06-05T18:02:36.052Z,99035.95
2018-06-05T18:05:05.920Z,99039.67
2018-06-05T18:07:35.737Z,99047.13
2018-06-05T18:10:05.576Z,99042.03
2018-06-05T18:12:35.489Z,99047.47
2018-06-05T18:15:05.453Z,99049.48
2018-06-05T18:17:35.252Z,99052.14
2018-06-05T18:20:05.176Z,99060.33
2018-06-05T18:22:35.040Z,99061.72
2018-06-05T18:25:04.856Z,99072.23
2018-06-05T18:27:34.736Z,99070.67
2018-06-05T18:30:04.761Z,99065.01
2018-06-05T18:32:34.592Z,99081.19
2018-06-05T18:35:04.460Z,99085.80
2018-06-05T18:37:34.260Z,99091.47
2018-06-05T18:40:04.204Z,99093.09
2018-06-05T18:42:34.010Z,99095.97
2018-06-05T18:45:03.865Z,99105.80
2018-06-05T18:47:33.679Z,99109.41
2018-06-05T18:50:03.559Z,99112.18
2018-06-05T18:52:33.434Z,99112.52
2018-06-05T18:55:03.313Z,99121.06
2018-06-05T18:57:33.143Z,99126.27
2018-06-05T19:00:02.997Z,99131.70
2018-06-05T19:02:32.784Z,99137.48
2018-06-05T19:05:02.608Z,99138.42
2018-06-05T19:07:32.402Z,99146.98
2018-06-05T19:10:02.232Z,99061.27
2018-06-05T19:12:32.025Z,99151.14
2018-06-05T19:15:01.862Z,99157.23
2018-06-05T19:17:31.721Z,99162.44
2018-06-05T19:20:01.547Z,99167.17
2018-06-05T19:22:31.371Z,99171.11
2018-06-05T19:25:01.168Z,99172.59
2018-06-05T19:27:31.069Z,99169.13
2018-06-05T19:30:00.944Z,99175.47
2018-06-05T19:32:30.792Z,99178.44
2018-06-05T19:35:00.629Z,99176.45
2018-06-05T19:37:30.468Z,99176.80
2018-06-05T19:40:00.307Z,99181.19
2018-06-05T19:42:30.205Z,99180.59
2018-06-05T19:45:00.086Z,99177.81
2018-06-05T19:47:29.897Z,99184.73
2018-06-05T19:49:59.750Z,99185.77
2018-06-05T19:52:29.589Z,99182.86
2018-06-05T19:54:59.388Z,99183.56
2018-06-05T19:57:29.248Z,99176.06
2018-06-05T19:59:59.079Z,99182.39
2018-06-05T20:02:28.907Z,99178.14
2018-06-05T20:04:58.748Z,99181.73
2018-06-05T20:07:28.548Z,99181.02
2018-06-05T20:09:58.392Z,99181.91
2018-06-05T20:12:28.243Z,99188.53
2018-06-05T20:14:58.084Z,99192.22
2018-06-05T20:17:27.937Z,99194.16
2018-06-05T20:19:57.797Z,99083.24
2018-06-05T20:22:27.618Z,99199.92
2018-06-05T20:24:57.496Z,99201.99
2018-06-05T20:27:27.304Z,99206.62
2018-06-05T20:29:57.164Z,99206.28
2018-06-05T20:32:27.036Z,99209.28
2018-06-05T20:34:56.829Z,99208.33
2018-06-05T20:37:26.677Z,99204.51
2018-06-05T20:39:56.469Z,99205.86
2018-06-05T20:42:26.336Z,99206.22
2018-06-05T20:44:56.132Z,99199.88
2018-06-05T20:47:25.975Z,99202.28
2018-06-05T20:49:55.821Z,99209.16
2018-06-05T20:52:25.838Z,99211.60
2018-06-05T20:54:55.636Z,99210.47
2018-06-05T20:57:25.470Z,99210.33
2018-06-05T20:59:55.307Z,99218.73
2018-06-05T21:02:25.104Z,99219.64
2018-06-05T21:04:54.952Z,99227.68
2018-06-05T21:07:24.757Z,99232.00
2018-06-05T21:09:54.599Z,99240.24
2018-06-05T21:12:24.412Z,99243.77
2018-06-05T21:14:54.257Z,99254.30
2018-06-05T21:17:24.068Z,99242.58
2018-06-05T21:19:53.909Z,99254.55
2018-06-05T21:22:23.792Z,99246.48
2018-06-05T21:24:53.681Z,99244.99
2018-06-05T21:27:23.494Z,99245.20
2018-06-05T21:29:53.331Z,99248.54
2018-06-05T21:32:23.111Z,99252.05
2018-06-05T21:34:52.847Z,99250.48
2018-06-05T21:37:22.652Z,99245.96
2018-06-05T21:39:52.469Z,99247.28
2018-06-05T21:42:22.198Z,99249.40
2018-06-05T21:44:51.989Z,99242.27
2018-06-05T21:47:21.735Z,99236.53
2018-06-05T21:49:51.543Z,99243.27
2018-06-05T21:52:21.279Z,99243.02
2018-06-05T21:54:51.064Z,99237.84
2018-06-05T21:57:20.795Z,99236.63
2018-06-05T21:59:50.570Z,99238.39
2018-06-05T22:02:20.328Z,99241.58
2018-06-05T22:04:50.170Z,99243.70
2018-06-05T22:07:19.939Z,99240.67
2018-06-05T22:09:49.719Z,99243.22
2018-06-05T22:12:19.500Z,99247.59
2018-06-05T22:14:49.335Z,99253.97
2018-06-05T22:17:19.095Z,99253.49
2018-06-05T22:19:48.920Z,99248.38
2018-06-05T22:22:18.726Z,99245.30
2018-06-05T22:24:48.499Z,99247.09
2018-06-05T22:27:18.255Z,99255.16
2018-06-05T22:29:48.047Z,99253.95
2018-06-05T22:32:17.780Z,99260.95
2018-06-05T22:34:47.571Z,99261.25
2018-06-05T22:37:17.361Z,99258.73
2018-06-05T22:39:47.110Z,99257.05
2018-06-05T22:42:16.887Z,99253.71
2018-06-05T22:44:46.616Z,99252.57
2018-06-05T22:47:16.418Z,99255.33
2018-06-05T22:49:46.166Z,99259.38
2018-06-05T22:52:15.991Z,99263.30
2018-06-05T22:54:45.710Z,99263.38
2018-06-05T22:57:15.499Z,99268.72
2018-06-05T22:59:45.244Z,99273.44
2018-06-05T23:02:15.059Z,99278.78
2018-06-05T23:04:44.835Z,99285.94
2018-06-05T23:07:14.615Z,99281.62
2018-06-05T23:09:44.471Z,99284.56
2018-06-05T23:12:14.224Z,99292.52
2018-06-05T23:14:44.002Z,99293.16
2018-06-05T23:17:13.795Z,99289.91
2018-06-05T23:19:43.539Z,99285.30
2018-06-05T23:22:13.316Z,99286.02
2018-06-05T23:24:43.111Z,99288.55
2018-06-05T23:27:12.926Z,99292.12
2018-06-05T23:29:42.791Z,99292.34
2018-06-05T23:32:12.615Z,99289.27
2018-06-05T23:34:42.429Z,99296.75
2018-06-05T23:37:12.204Z,99302.98
2018-06-05T23:39:42.059Z,99306.15
2018-06-05T23:42:11.876Z,99304.59
2018-06-05T23:44:41.758Z,99299.08
2018-06-05T23:47:11.607Z,99298.50
2018-06-05T23:49:41.404Z,99297.59
2018-06-05T23:52:11.249Z,99297.08
2018-06-05T23:54:41.108Z,99298.87
2018-06-05T23:57:10.925Z,99308.61
2018-06-05T23:59:40.815Z,99297.66
